Time;durP1;ratioP1;P1;durP2;ratioP2;P2;SDS_P1;SDS_P2;PMS_P1;PMS_P2;Temp;Humidity;BMP_temperature;BMP_pressure;BME280_temperature;BME280_humidity;BME280_pressure;Samples;Min_cycle;Max_cycle;Signal;HPM_P1;HPM_P2
2022/08/01 00:02:05;;;;;;;5.70;3.03;;;;;;;;;;10473150;28;20020;-45
2022/08/01 00:07:06;;;;;;;6.68;3.10;;;;;;;;;;10466964;28;20053;-45
2022/08/01 00:12:06;;;;;;;5.80;2.75;;;;;;;;;;10473973;28;20445;-51
2022/08/01 00:17:07;;;;;;;4.32;2.72;;;;;;;;;;10494140;28;20086;-44
2022/08/01 00:22:08;;;;;;;6.40;2.60;;;;;;;;;;10484109;28;20032;-45
2022/08/01 00:27:08;;;;;;;13.50;3.25;;;;;;;;;;10493871;28;20383;-46
2022/08/01 00:32:09;;;;;;;4.72;3.00;;;;;;;;;;10494563;28;20063;-45
2022/08/01 00:37:09;;;;;;;3.50;2.67;;;;;;;;;;10494177;28;20029;-45
2022/08/01 00:42:12;;;;;;;5.93;2.72;;;;;;;;;;10494915;28;20207;-44
2022/08/01 00:47:12;;;;;;;4.63;2.67;;;;;;;;;;10481680;28;20033;-49
2022/08/01 00:52:13;;;;;;;6.03;3.03;;;;;;;;;;10480945;28;20066;-45
2022/08/01 00:57:13;;;;;;;3.28;2.70;;;;;;;;;;10450112;28;20016;-58
2022/08/01 01:02:14;;;;;;;6.03;3.10;;;;;;;;;;10482031;28;20540;-45
2022/08/01 01:07:37;;;;;;;11.52;3.15;;;;;;;;;;10477217;28;20040;-45
2022/08/01 01:12:45;;;;;;;6.07;3.05;;;;;;;;;;10465052;28;20244;-45
2022/08/01 01:17:50;;;;;;;3.40;2.63;;;;;;;;;;10455123;28;20036;-44
2022/08/01 01:23:10;;;;;;;15.60;3.17;;;;;;;;;;10471402;28;20047;-51
2022/08/01 01:28:52;;;;;;;6.07;2.90;;;;;;;;;;10469640;28;20499;-44
2022/08/01 01:33:55;;;;;;;3.70;2.60;;;;;;;;;;10460115;28;20041;-45
2022/08/01 01:38:56;;;;;;;5.75;2.65;;;;;;;;;;10480139;28;20034;-48
2022/08/01 01:44:00;;;;;;;6.95;2.55;;;;;;;;;;10460896;28;20503;-45
2022/08/01 01:49:02;;;;;;;6.63;2.38;;;;;;;;;;10463921;28;20037;-45
2022/08/01 01:54:04;;;;;;;3.92;2.50;;;;;;;;;;10472827;28;20723;-45
2022/08/01 01:59:05;;;;;;;6.05;2.33;;;;;;;;;;10482346;28;20047;-45
2022/08/01 02:04:06;;;;;;;3.42;2.33;;;;;;;;;;10444774;28;20047;-45
2022/08/01 02:09:09;;;;;;;3.50;2.05;;;;;;;;;;10454323;28;20044;-46
2022/08/01 02:14:11;;;;;;;3.08;2.08;;;;;;;;;;10466924;28;20029;-45
2022/08/01 02:19:11;;;;;;;4.15;2.10;;;;;;;;;;10469460;28;20036;-44
2022/08/01 02:24:21;;;;;;;4.72;2.03;;;;;;;;;;10455914;28;20047;-45
2022/08/01 02:29:28;;;;;;;9.88;2.47;;;;;;;;;;10449228;28;20475;-45
2022/08/01 02:34:32;;;;;;;2.50;1.80;;;;;;;;;;10444066;28;20178;-45
2022/08/01 02:39:35;;;;;;;4.25;2.13;;;;;;;;;;10453312;28;20083;-45
2022/08/01 02:44:41;;;;;;;5.15;2.15;;;;;;;;;;10434251;28;20037;-45
2022/08/01 02:49:47;;;;;;;6.25;2.47;;;;;;;;;;10441295;28;20040;-44
2022/08/01 02:54:54;;;;;;;3.90;2.42;;;;;;;;;;10445415;28;20032;-45
2022/08/01 02:59:57;;;;;;;6.85;2.35;;;;;;;;;;10435444;28;20021;-45
2022/08/01 03:05:00;;;;;;;8.13;2.30;;;;;;;;;;10444613;22;20057;-72
2022/08/01 03:10:01;;;;;;;4.05;2.03;;;;;;;;;;10414965;28;20488;-65
2022/08/01 03:15:04;;;;;;;4.43;1.95;;;;;;;;;;10394412;28;20447;-75
2022/08/01 03:20:08;;;;;;;5.65;2.17;;;;;;;;;;10362664;28;20026;-71
2022/08/01 03:25:13;;;;;;;2.70;1.95;;;;;;;;;;10349460;28;20049;-68
2022/08/01 03:30:15;;;;;;;6.47;2.35;;;;;;;;;;10355978;28;20029;-67
2022/08/01 03:35:16;;;;;;;5.45;2.40;;;;;;;;;;10387000;28;20187;-67
2022/08/01 03:40:30;;;;;;;4.35;2.28;;;;;;;;;;10390181;28;20083;-70
2022/08/01 03:45:41;;;;;;;5.20;1.92;;;;;;;;;;10393488;28;20434;-69
2022/08/01 03:50:46;;;;;;;3.83;2.20;;;;;;;;;;10383905;28;20033;-71
2022/08/01 03:55:48;;;;;;;9.02;2.20;;;;;;;;;;10388881;28;20095;-70
2022/08/01 04:00:49;;;;;;;9.73;2.30;;;;;;;;;;10401526;28;20431;-70
2022/08/01 04:05:50;;;;;;;15.38;2.38;;;;;;;;;;10380800;28;20057;-71
2022/08/01 04:10:51;;;;;;;8.10;2.05;;;;;;;;;;10372533;28;20112;-70
2022/08/01 04:15:51;;;;;;;3.97;1.80;;;;;;;;;;10389755;28;20029;-68
2022/08/01 04:20:52;;;;;;;3.88;2.22;;;;;;;;;;10402925;28;20428;-68
2022/08/01 04:25:53;;;;;;;3.35;1.95;;;;;;;;;;10415357;28;20048;-66
2022/08/01 04:30:55;;;;;;;5.68;1.60;;;;;;;;;;10393890;28;20096;-67
2022/08/01 04:35:59;;;;;;;7.82;2.20;;;;;;;;;;10407953;28;20468;-69
2022/08/01 04:41:01;;;;;;;7.70;2.22;;;;;;;;;;10399206;28;20358;-68
2022/08/01 04:46:03;;;;;;;11.55;2.65;;;;;;;;;;10355352;28;20173;-69
2022/08/01 04:51:11;;;;;;;12.38;2.58;;;;;;;;;;10400069;28;20026;-65
2022/08/01 04:56:15;;;;;;;11.93;2.53;;;;;;;;;;10393733;28;20033;-65
2022/08/01 05:01:16;;;;;;;8.25;2.45;;;;;;;;;;10397718;28;20475;-66
2022/08/01 05:06:16;;;;;;;9.60;2.53;;;;;;;;;;10407375;28;20049;-64
2022/08/01 05:11:17;;;;;;;13.40;2.25;;;;;;;;;;10374283;28;20022;-65
2022/08/01 05:16:17;;;;;;;9.38;2.10;;;;;;;;;;10378341;28;20025;-65
2022/08/01 05:21:18;;;;;;;7.78;2.25;;;;;;;;;;10377299;28;20022;-68
2022/08/01 05:26:19;;;;;;;8.85;2.22;;;;;;;;;;10374534;28;20045;-69
2022/08/01 05:31:19;;;;;;;10.82;2.47;;;;;;;;;;10374856;28;20029;-66
2022/08/01 05:36:20;;;;;;;11.27;2.40;;;;;;;;;;10379386;28;20389;-66
2022/08/01 05:41:20;;;;;;;17.02;2.80;;;;;;;;;;10378957;28;20034;-62
2022/08/01 05:46:21;;;;;;;7.88;2.78;;;;;;;;;;10377434;28;20044;-65
2022/08/01 05:51:22;;;;;;;21.58;4.00;;;;;;;;;;10386226;28;20477;-65
2022/08/01 05:56:23;;;;;;;19.42;2.92;;;;;;;;;;10372949;28;20041;-64
2022/08/01 06:01:23;;;;;;;9.38;3.40;;;;;;;;;;10372472;28;20109;-67
2022/08/01 06:06:24;;;;;;;17.55;2.90;;;;;;;;;;10382017;28;20421;-66
2022/08/01 06:11:24;;;;;;;18.80;2.70;;;;;;;;;;10377216;28;20037;-68
2022/08/01 06:16:25;;;;;;;22.58;3.15;;;;;;;;;;10377668;28;20056;-67
2022/08/01 06:21:26;;;;;;;8.55;2.15;;;;;;;;;;10377388;28;20032;-67
2022/08/01 06:26:26;;;;;;;6.78;2.60;;;;;;;;;;10373533;28;20264;-68
2022/08/01 06:31:27;;;;;;;4.85;2.20;;;;;;;;;;10371549;28;20489;-68
2022/08/01 06:36:27;;;;;;;7.25;2.50;;;;;;;;;;10363592;28;20481;-68
2022/08/01 06:41:28;;;;;;;6.60;2.30;;;;;;;;;;10369142;28;20401;-68
2022/08/01 06:46:29;;;;;;;5.35;2.20;;;;;;;;;;10370331;28;20048;-68
2022/08/01 06:51:30;;;;;;;10.35;2.08;;;;;;;;;;10359433;28;20131;-66
2022/08/01 06:56:30;;;;;;;6.00;2.05;;;;;;;;;;10369380;28;20125;-65
2022/08/01 07:01:31;;;;;;;5.38;2.08;;;;;;;;;;10368916;28;20033;-68
2022/08/01 07:06:31;;;;;;;6.10;2.10;;;;;;;;;;10369188;28;20065;-67
2022/08/01 07:11:32;;;;;;;7.82;1.95;;;;;;;;;;10368783;28;20034;-67
2022/08/01 07:16:32;;;;;;;6.03;2.35;;;;;;;;;;10371197;28;20034;-67
2022/08/01 07:21:33;;;;;;;6.72;2.00;;;;;;;;;;10366947;28;20033;-67
2022/08/01 07:26:34;;;;;;;5.55;2.33;;;;;;;;;;10367016;28;20156;-67
2022/08/01 07:31:34;;;;;;;9.63;2.40;;;;;;;;;;10364190;28;20048;-68
2022/08/01 07:36:35;;;;;;;13.05;2.33;;;;;;;;;;10367689;28;20056;-68
2022/08/01 07:41:36;;;;;;;11.32;2.53;;;;;;;;;;10384097;28;20096;-68
2022/08/01 07:46:36;;;;;;;12.68;2.17;;;;;;;;;;10375825;28;20041;-68
2022/08/01 07:51:37;;;;;;;11.57;2.42;;;;;;;;;;10360134;28;20033;-65
2022/08/01 07:56:38;;;;;;;10.50;2.22;;;;;;;;;;10361340;28;20069;-68
2022/08/01 08:01:39;;;;;;;10.63;2.63;;;;;;;;;;10358979;28;20037;-67
2022/08/01 08:06:41;;;;;;;9.00;2.55;;;;;;;;;;10379007;28;20058;-68
2022/08/01 08:11:46;;;;;;;10.15;2.22;;;;;;;;;;10387047;28;20026;-66
2022/08/01 08:16:47;;;;;;;9.68;2.88;;;;;;;;;;10389109;28;20033;-67
2022/08/01 08:21:47;;;;;;;11.43;2.50;;;;;;;;;;10377651;28;20478;-67
2022/08/01 08:26:50;;;;;;;10.20;2.70;;;;;;;;;;10380866;28;20026;-67
2022/08/01 08:31:53;;;;;;;5.55;2.55;;;;;;;;;;10376518;28;20108;-67
2022/08/01 08:36:55;;;;;;;8.05;2.60;;;;;;;;;;10369427;28;20038;-67
2022/08/01 08:42:01;;;;;;;7.95;2.22;;;;;;;;;;10398603;28;20036;-67
2022/08/01 08:47:05;;;;;;;8.60;2.75;;;;;;;;;;10385319;28;20039;-67
2022/08/01 08:52:07;;;;;;;5.35;1.98;;;;;;;;;;10377286;28;20030;-68
2022/08/01 08:57:10;;;;;;;9.25;2.25;;;;;;;;;;10364758;28;20033;-68
2022/08/01 09:02:11;;;;;;;10.13;2.60;;;;;;;;;;10373429;28;20056;-68
2022/08/01 09:07:14;;;;;;;6.45;2.30;;;;;;;;;;10375231;28;20050;-68
2022/08/01 09:12:17;;;;;;;7.53;2.10;;;;;;;;;;10359532;28;20033;-66
2022/08/01 09:17:19;;;;;;;7.03;2.47;;;;;;;;;;10379174;28;20028;-66
2022/08/01 09:22:25;;;;;;;7.80;1.80;;;;;;;;;;10371581;28;20117;-68
2022/08/01 09:27:25;;;;;;;7.13;2.28;;;;;;;;;;10368503;28;20068;-69
2022/08/01 09:32:26;;;;;;;6.70;2.30;;;;;;;;;;10359603;28;20037;-68
2022/08/01 09:37:30;;;;;;;3.60;2.20;;;;;;;;;;10353103;28;20026;-68
2022/08/01 09:42:31;;;;;;;3.40;1.92;;;;;;;;;;10375284;28;20026;-68
2022/08/01 09:47:39;;;;;;;2.47;1.83;;;;;;;;;;10361756;28;20034;-60
2022/08/01 09:52:40;;;;;;;5.85;2.00;;;;;;;;;;10384491;28;20037;-61
2022/08/01 09:57:55;;;;;;;5.75;1.73;;;;;;;;;;10355361;28;20030;-61
2022/08/01 10:02:56;;;;;;;5.15;2.00;;;;;;;;;;10373725;28;20120;-61
2022/08/01 10:08:04;;;;;;;4.38;1.80;;;;;;;;;;10371337;28;20405;-59
2022/08/01 10:13:07;;;;;;;2.97;1.75;;;;;;;;;;10372036;28;20060;-61
2022/08/01 10:18:10;;;;;;;4.53;1.83;;;;;;;;;;10373959;28;20034;-62
2022/08/01 10:23:12;;;;;;;4.90;1.80;;;;;;;;;;10381622;28;20109;-60
2022/08/01 10:28:18;;;;;;;5.82;1.60;;;;;;;;;;10365852;28;20049;-61
2022/08/01 10:33:22;;;;;;;3.60;1.70;;;;;;;;;;10357633;28;20408;-62
2022/08/01 10:38:23;;;;;;;4.45;1.77;;;;;;;;;;10379463;28;20139;-60
2022/08/01 10:43:23;;;;;;;3.70;1.80;;;;;;;;;;10383900;28;20091;-60
2022/08/01 10:48:42;;;;;;;3.92;1.80;;;;;;;;;;10359627;28;20097;-61
2022/08/01 10:53:50;;;;;;;4.18;1.70;;;;;;;;;;10371552;28;20445;-61
2022/08/01 10:59:02;;;;;;;;;;;;;;;;;;10371597;28;20140;-61
2022/08/01 11:04:12;;;;;;;8.18;1.80;;;;;;;;;;10349452;28;19926;-61
2022/08/01 11:09:12;;;;;;;4.10;1.67;;;;;;;;;;10371602;28;20037;-61
2022/08/01 11:14:13;;;;;;;5.30;1.77;;;;;;;;;;10363825;28;20029;-62
2022/08/01 11:19:14;;;;;;;2.25;1.60;;;;;;;;;;10371714;28;20479;-61
2022/08/01 11:24:15;;;;;;;1.95;1.75;;;;;;;;;;10364514;28;20030;-62
2022/08/01 11:29:18;;;;;;;5.55;2.35;;;;;;;;;;10352606;28;20386;-61
2022/08/01 11:34:18;;;;;;;2.25;1.80;;;;;;;;;;10363991;28;20030;-61
2022/08/01 11:39:19;;;;;;;5.32;1.60;;;;;;;;;;10368404;28;20030;-62
2022/08/01 11:44:25;;;;;;;2.63;1.80;;;;;;;;;;10373298;28;20034;-62
2022/08/01 11:49:45;;;;;;;3.15;1.80;;;;;;;;;;10377224;28;20065;-61
2022/08/01 11:54:49;;;;;;;2.88;1.92;;;;;;;;;;10365363;28;20030;-62
2022/08/01 11:59:54;;;;;;;5.10;1.70;;;;;;;;;;10364374;28;20036;-62
2022/08/01 12:05:00;;;;;;;3.60;1.80;;;;;;;;;;10366263;28;20038;-62
2022/08/01 12:10:06;;;;;;;2.72;1.80;;;;;;;;;;10386108;28;20068;-61
2022/08/01 12:15:09;;;;;;;2.47;1.77;;;;;;;;;;10389783;28;20443;-61
2022/08/01 12:20:15;;;;;;;1.88;1.40;;;;;;;;;;10380972;28;20045;-60
2022/08/01 12:25:17;;;;;;;3.50;1.90;;;;;;;;;;10357442;28;20126;-61
2022/08/01 12:30:24;;;;;;;3.55;1.88;;;;;;;;;;10338865;28;20488;-60
2022/08/01 12:35:28;;;;;;;7.80;2.00;;;;;;;;;;10309794;28;20251;-61
2022/08/01 12:40:35;;;;;;;1.77;1.30;;;;;;;;;;10322999;28;20038;-60
2022/08/01 12:45:42;;;;;;;3.45;1.80;;;;;;;;;;10322263;28;20018;-61
2022/08/01 12:50:49;;;;;;;4.47;1.67;;;;;;;;;;10330599;28;20045;-61
2022/08/01 12:55:55;;;;;;;3.00;1.60;;;;;;;;;;10316045;28;20104;-62
2022/08/01 13:01:05;;;;;;;2.72;1.63;;;;;;;;;;10326817;28;20093;-62
2022/08/01 13:06:14;;;;;;;5.35;1.80;;;;;;;;;;10324250;28;20042;-62
2022/08/01 13:11:16;;;;;;;9.52;1.90;;;;;;;;;;10326878;28;20030;-60
2022/08/01 13:16:21;;;;;;;3.50;1.80;;;;;;;;;;10330261;28;20046;-61
2022/08/01 13:21:28;;;;;;;5.93;1.88;;;;;;;;;;10320937;28;20466;-62
2022/08/01 13:26:59;;;;;;;2.95;1.77;;;;;;;;;;10310444;28;20097;-61
2022/08/01 13:32:15;;;;;;;8.18;2.10;;;;;;;;;;10324391;28;20057;-67
2022/08/01 13:37:16;;;;;;;4.43;1.92;;;;;;;;;;10309628;28;20047;-67
2022/08/01 13:42:17;;;;;;;8.07;2.00;;;;;;;;;;10312165;28;20367;-68
2022/08/01 13:47:17;;;;;;;4.93;1.70;;;;;;;;;;10328380;28;20501;-68
2022/08/01 13:52:18;;;;;;;3.42;1.90;;;;;;;;;;10313359;28;20030;-69
2022/08/01 13:57:18;;;;;;;4.18;2.22;;;;;;;;;;10321926;28;20064;-67
2022/08/01 14:02:20;;;;;;;5.82;2.17;;;;;;;;;;10321414;28;20101;-65
2022/08/01 14:07:21;;;;;;;2.78;1.70;;;;;;;;;;10323023;28;20081;-68
2022/08/01 14:12:22;;;;;;;4.60;1.92;;;;;;;;;;10312273;28;20098;-69
2022/08/01 14:17:22;;;;;;;6.97;2.30;;;;;;;;;;10319892;28;20030;-69
2022/08/01 14:22:23;;;;;;;4.28;2.10;;;;;;;;;;10327085;28;20027;-69
2022/08/01 14:27:23;;;;;;;3.65;1.63;;;;;;;;;;10314740;28;20549;-70
2022/08/01 14:32:24;;;;;;;5.47;2.00;;;;;;;;;;10313098;28;20394;-69
2022/08/01 14:37:25;;;;;;;3.95;1.52;;;;;;;;;;10307752;28;20015;-68
2022/08/01 14:42:26;;;;;;;4.05;1.98;;;;;;;;;;10316170;28;20039;-69
2022/08/01 14:47:27;;;;;;;4.75;1.75;;;;;;;;;;10305604;28;20089;-69
2022/08/01 14:52:27;;;;;;;4.10;1.92;;;;;;;;;;10306095;28;20042;-68
2022/08/01 14:57:28;;;;;;;5.15;1.83;;;;;;;;;;10314959;28;20022;-69
2022/08/01 15:02:29;;;;;;;4.97;1.50;;;;;;;;;;10305419;28;20046;-68
2022/08/01 15:07:29;;;;;;;3.30;1.40;;;;;;;;;;10302289;28;20577;-69
2022/08/01 15:12:30;;;;;;;4.90;1.70;;;;;;;;;;10328516;28;20482;-69
2022/08/01 15:17:34;;;;;;;1.83;1.58;;;;;;;;;;10300898;28;20388;-68
2022/08/01 15:22:35;;;;;;;2.33;1.90;;;;;;;;;;10319009;28;20034;-68
2022/08/01 15:27:35;;;;;;;3.20;1.55;;;;;;;;;;10318389;28;20145;-69
2022/08/01 15:32:36;;;;;;;3.65;1.42;;;;;;;;;;10304640;28;20034;-69
2022/08/01 15:37:37;;;;;;;2.28;1.50;;;;;;;;;;10299773;28;20058;-68
2022/08/01 15:42:37;;;;;;;1.75;1.40;;;;;;;;;;10307872;28;20026;-69
2022/08/01 15:47:38;;;;;;;3.30;1.65;;;;;;;;;;10317281;28;20037;-67
2022/08/01 15:52:38;;;;;;;2.88;1.50;;;;;;;;;;10318236;28;20053;-69
2022/08/01 15:57:39;;;;;;;1.73;1.63;;;;;;;;;;10331250;28;20386;-68
2022/08/01 16:02:40;;;;;;;1.63;1.30;;;;;;;;;;10328739;28;20034;-69
2022/08/01 16:07:40;;;;;;;2.97;1.52;;;;;;;;;;10309444;28;20053;-69
2022/08/01 16:12:41;;;;;;;3.33;1.67;;;;;;;;;;10308264;28;20034;-69
2022/08/01 16:17:41;;;;;;;5.82;1.65;;;;;;;;;;10319321;28;20027;-68
2022/08/01 16:22:42;;;;;;;3.63;1.80;;;;;;;;;;10299974;28;20491;-70
2022/08/01 16:27:44;;;;;;;3.70;1.58;;;;;;;;;;10328818;28;20386;-70
2022/08/01 16:32:45;;;;;;;2.67;1.75;;;;;;;;;;10316078;28;20501;-68
2022/08/01 16:37:46;;;;;;;11.93;2.08;;;;;;;;;;10310371;28;20117;-62
2022/08/01 16:42:46;;;;;;;7.68;1.90;;;;;;;;;;10317666;28;20545;-61
2022/08/01 16:47:47;;;;;;;5.65;1.65;;;;;;;;;;10334780;28;20031;-64
2022/08/01 16:52:48;;;;;;;2.38;1.52;;;;;;;;;;10321485;28;20035;-60
2022/08/01 16:57:50;;;;;;;3.95;1.52;;;;;;;;;;10331856;28;20030;-60
2022/08/01 17:02:51;;;;;;;3.25;1.38;;;;;;;;;;10320655;28;20038;-59
2022/08/01 17:07:52;;;;;;;3.67;1.67;;;;;;;;;;10329484;28;20042;-60
2022/08/01 17:12:52;;;;;;;2.85;1.63;;;;;;;;;;10322079;28;20066;-59
2022/08/01 17:17:53;;;;;;;7.00;2.03;;;;;;;;;;10310891;28;20030;-59
2022/08/01 17:22:54;;;;;;;6.43;1.60;;;;;;;;;;10316728;28;20368;-60
2022/08/01 17:27:55;;;;;;;5.32;1.70;;;;;;;;;;10309416;28;20027;-59
2022/08/01 17:32:56;;;;;;;8.27;1.60;;;;;;;;;;10295705;28;20522;-60
2022/08/01 17:37:56;;;;;;;5.00;1.70;;;;;;;;;;10313050;28;20053;-60
2022/08/01 17:42:57;;;;;;;2.53;1.58;;;;;;;;;;10331118;28;20105;-60
2022/08/01 17:47:57;;;;;;;1.88;1.58;;;;;;;;;;10316362;28;20061;-60
2022/08/01 17:52:58;;;;;;;6.35;1.60;;;;;;;;;;10311985;28;20033;-59
2022/08/01 17:57:59;;;;;;;2.72;1.40;;;;;;;;;;10339420;28;20031;-61
2022/08/01 18:02:59;;;;;;;3.60;1.75;;;;;;;;;;10316232;28;20055;-60
2022/08/01 18:08:00;;;;;;;6.78;1.35;;;;;;;;;;10307857;28;20407;-61
2022/08/01 18:13:02;;;;;;;5.03;1.75;;;;;;;;;;10313024;28;20026;-61
2022/08/01 18:18:03;;;;;;;3.15;1.40;;;;;;;;;;10293478;28;20022;-60
2022/08/01 18:23:08;;;;;;;3.42;1.60;;;;;;;;;;10304638;28;20022;-61
2022/08/01 18:28:09;;;;;;;5.63;1.60;;;;;;;;;;10309544;28;20058;-61
2022/08/01 18:33:09;;;;;;;2.92;1.70;;;;;;;;;;10312748;28;20053;-62
2022/08/01 18:38:10;;;;;;;3.38;1.58;;;;;;;;;;10331488;28;20118;-62
2022/08/01 18:43:11;;;;;;;2.63;1.42;;;;;;;;;;10296492;28;20034;-61
2022/08/01 18:48:11;;;;;;;3.65;1.58;;;;;;;;;;10315312;28;20041;-62
2022/08/01 18:53:12;;;;;;;2.85;1.50;;;;;;;;;;10317288;28;20034;-62
2022/08/01 18:58:12;;;;;;;3.65;1.50;;;;;;;;;;10311695;28;20037;-62
2022/08/01 19:03:14;;;;;;;2.47;1.33;;;;;;;;;;10314351;28;20038;-61
2022/08/01 19:08:15;;;;;;;2.25;1.38;;;;;;;;;;10328965;28;20042;-61
2022/08/01 19:13:15;;;;;;;4.00;1.55;;;;;;;;;;10305552;28;20393;-61
2022/08/01 19:18:16;;;;;;;2.85;1.33;;;;;;;;;;10324133;28;20363;-60
2022/08/01 19:28:44;;;;;;;1.98;1.20;;;;;;;;;;10314166;28;20034;-61
2022/08/01 19:33:45;;;;;;;3.75;1.20;;;;;;;;;;10302788;28;20410;-60
2022/08/01 19:38:46;;;;;;;5.20;1.40;;;;;;;;;;10321279;28;20034;-61
2022/08/01 19:43:48;;;;;;;1.60;1.30;;;;;;;;;;10313913;28;20068;-60
2022/08/01 19:48:50;;;;;;;1.67;1.10;;;;;;;;;;10293687;28;20133;-61
2022/08/01 19:53:53;;;;;;;1.83;1.23;;;;;;;;;;10310114;28;20034;-61
2022/08/01 19:58:54;;;;;;;1.58;1.20;;;;;;;;;;10301041;28;20038;-61
2022/08/01 20:03:55;;;;;;;3.53;1.45;;;;;;;;;;10303424;28;20419;-60
2022/08/01 20:08:57;;;;;;;7.28;1.48;;;;;;;;;;10307162;28;20383;-59
2022/08/01 20:13:59;;;;;;;7.22;1.60;;;;;;;;;;10325552;28;20598;-59
2022/08/01 20:19:00;;;;;;;3.08;1.50;;;;;;;;;;10325218;28;20034;-59
2022/08/01 20:24:02;;;;;;;5.50;1.48;;;;;;;;;;10317662;28;20603;-60
2022/08/01 20:29:03;;;;;;;2.53;1.20;;;;;;;;;;10324916;28;20026;-59
2022/08/01 20:34:04;;;;;;;1.75;1.38;;;;;;;;;;10320831;28;20529;-59
2022/08/01 20:39:05;;;;;;;3.47;1.40;;;;;;;;;;10313802;28;20022;-60
2022/08/01 20:44:07;;;;;;;6.32;1.52;;;;;;;;;;10309029;28;20403;-59
2022/08/01 20:49:10;;;;;;;3.60;1.48;;;;;;;;;;10314332;28;20052;-60
2022/08/01 20:54:11;;;;;;;3.17;1.27;;;;;;;;;;10328282;28;20501;-59
2022/08/01 20:59:32;;;;;;;2.58;1.25;;;;;;;;;;10332226;28;20112;-60
2022/08/01 21:04:55;;;;;;;5.43;1.45;;;;;;;;;;10327015;28;20047;-59
2022/08/01 21:10:10;;;;;;;5.88;1.58;;;;;;;;;;10334714;28;20061;-59
2022/08/01 21:15:14;;;;;;;5.97;1.30;;;;;;;;;;10331709;28;20038;-60
2022/08/01 21:20:17;;;;;;;7.03;1.75;;;;;;;;;;10315263;28;20026;-60
2022/08/01 21:25:25;;;;;;;2.72;1.30;;;;;;;;;;10344933;28;20026;-60
2022/08/01 21:30:26;;;;;;;;;;;;;;;;;;10314969;28;20497;-60
2022/08/01 21:35:27;;;;;;;1.63;1.20;;;;;;;;;;10324849;28;20456;-61
2022/08/01 21:40:32;;;;;;;3.63;1.38;;;;;;;;;;10328051;28;20026;-60
2022/08/01 21:45:34;;;;;;;4.13;1.50;;;;;;;;;;10308837;28;20655;-60
2022/08/01 21:50:54;;;;;;;10.07;1.67;;;;;;;;;;10324961;28;20427;-59
2022/08/01 21:56:07;;;;;;;9.32;1.80;;;;;;;;;;10332920;28;20045;-58
2022/08/01 22:01:56;;;;;;;1.90;1.10;;;;;;;;;;10313754;28;20048;-59
2022/08/01 22:06:58;;;;;;;9.05;1.55;;;;;;;;;;10342129;28;20486;-59
2022/08/01 22:12:03;;;;;;;2.75;1.60;;;;;;;;;;10327616;28;20497;-59
2022/08/01 22:17:04;;;;;;;6.00;1.52;;;;;;;;;;10328305;28;20482;-60
2022/08/01 22:22:06;;;;;;;4.13;1.58;;;;;;;;;;10339095;28;20037;-59
2022/08/01 22:27:22;;;;;;;6.68;1.48;;;;;;;;;;10327338;28;20070;-59
2022/08/01 22:32:32;;;;;;;3.88;1.27;;;;;;;;;;10318272;28;20058;-58
2022/08/01 22:37:34;;;;;;;5.03;1.70;;;;;;;;;;10319652;28;20038;-59
2022/08/01 22:42:44;;;;;;;12.63;1.65;;;;;;;;;;10324313;28;20093;-59
2022/08/01 22:48:28;;;;;;;3.42;1.80;;;;;;;;;;10315071;28;20042;-58
2022/08/01 22:53:43;;;;;;;3.50;1.55;;;;;;;;;;10266195;28;20118;-59
2022/08/01 22:58:45;;;;;;;5.20;1.60;;;;;;;;;;10309379;28;20566;-58
2022/08/01 23:03:49;;;;;;;5.53;1.60;;;;;;;;;;10301281;28;20506;-58
2022/08/01 23:08:54;;;;;;;9.35;2.00;;;;;;;;;;10341962;28;20029;-58
2022/08/01 23:13:56;;;;;;;4.78;1.58;;;;;;;;;;10327583;28;20022;-58
2022/08/01 23:18:58;;;;;;;7.75;2.20;;;;;;;;;;10308971;28;20560;-58
2022/08/01 23:24:00;;;;;;;3.35;1.58;;;;;;;;;;10313128;28;20027;-59
2022/08/01 23:29:01;;;;;;;4.82;1.88;;;;;;;;;;10322867;28;20234;-59
2022/08/01 23:34:02;;;;;;;4.63;2.03;;;;;;;;;;10327089;28;20018;-59
2022/08/01 23:39:02;;;;;;;7.78;1.90;;;;;;;;;;10325755;28;20382;-59
2022/08/01 23:44:03;;;;;;;6.55;1.80;;;;;;;;;;10317636;28;20072;-59
2022/08/01 23:49:04;;;;;;;3.08;1.70;;;;;;;;;;10318056;28;20034;-59
2022/08/01 23:54:05;;;;;;;6.93;1.70;;;;;;;;;;10339761;28;20042;-59
2022/08/01 23:59:05;;;;;;;3.45;1.80;;;;;;;;;;10291470;28;20031;-58
